TimeEDT,TemperatureF,Dew PointF,Humidity,Sea Level PressureIn,VisibilityMPH,Wind Direction,Wind SpeedMPH,Gust SpeedMPH,PrecipitationIn,Events,Conditions,WindDirDegrees,DateUTC
12:15 AM,55.4,39.2,54,29.67,10.0,Calm,Calm,-,N/A,,Clear,0,2014-03-12 04:15:00
12:35 AM,55.4,41.0,58,29.66,10.0,Calm,Calm,-,N/A,,Clear,0,2014-03-12 04:35:00
12:55 AM,53.6,41.0,62,29.65,10.0,ESE,3.5,-,N/A,,Clear,120,2014-03-12 04:55:00
1:15 AM,53.6,41.0,62,29.64,10.0,SE,4.6,-,N/A,,Scattered Clouds,130,2014-03-12 05:15:00
1:35 AM,55.4,41.0,58,29.62,10.0,Calm,Calm,-,N/A,,Clear,0,2014-03-12 05:35:00
1:55 AM,53.6,41.0,62,29.61,10.0,Calm,Calm,-,N/A,,Clear,0,2014-03-12 05:55:00
2:15 AM,55.4,41.0,58,29.60,10.0,ESE,4.6,-,N/A,,Scattered Clouds,110,2014-03-12 06:15:00
2:35 AM,55.4,42.8,63,29.58,10.0,Calm,Calm,-,N/A,,Overcast,0,2014-03-12 06:35:00
2:55 AM,60.8,44.6,55,29.58,10.0,NW,5.8,-,N/A,,Overcast,320,2014-03-12 06:55:00
3:15 AM,62.6,46.4,55,29.57,10.0,SW,5.8,-,N/A,,Overcast,220,2014-03-12 07:15:00
3:35 AM,64.4,46.4,52,29.56,10.0,SW,6.9,-,N/A,,Overcast,220,2014-03-12 07:35:00
3:55 AM,64.4,46.4,52,29.55,10.0,WSW,3.5,-,N/A,,Overcast,250,2014-03-12 07:55:00
4:15 AM,64.4,46.4,52,29.53,10.0,WSW,6.9,-,N/A,,Overcast,250,2014-03-12 08:15:00
4:35 AM,64.4,48.2,56,29.52,10.0,SW,6.9,19.6,N/A,,Overcast,230,2014-03-12 08:35:00
4:55 AM,64.4,48.2,56,29.52,10.0,SW,11.5,19.6,N/A,,Overcast,220,2014-03-12 08:55:00
5:15 AM,64.4,50.0,59,29.51,10.0,West,9.2,17.3,N/A,,Overcast,260,2014-03-12 09:15:00
5:35 AM,64.4,50.0,59,29.51,10.0,SSW,8.1,18.4,N/A,,Overcast,210,2014-03-12 09:35:00
5:55 AM,62.6,50.0,63,29.50,10.0,SSW,6.9,21.9,N/A,,Overcast,210,2014-03-12 09:55:00
6:15 AM,62.6,51.8,68,29.50,10.0,SSW,6.9,17.3,N/A,,Overcast,200,2014-03-12 10:15:00
6:35 AM,60.8,51.8,72,29.49,10.0,SSE,3.5,-,N/A,,Overcast,150,2014-03-12 10:35:00
6:55 AM,60.8,51.8,72,29.48,7.0,South,5.8,-,N/A,,Overcast,180,2014-03-12 10:55:00
7:15 AM,60.8,53.6,77,29.48,10.0,WSW,3.5,-,N/A,,Overcast,240,2014-03-12 11:15:00
7:35 AM,59.0,53.6,82,29.47,7.0,Calm,Calm,-,N/A,,Overcast,0,2014-03-12 11:35:00
7:55 AM,59.0,53.6,82,29.46,10.0,WNW,5.8,-,N/A,,Overcast,300,2014-03-12 11:55:00
8:15 AM,59.0,53.6,82,29.45,10.0,North,-9999.0,-,N/A,,Overcast,0,2014-03-12 12:15:00
8:35 AM,59.0,53.6,82,29.45,7.0,SW,9.2,-,N/A,,Overcast,220,2014-03-12 12:35:00
8:55 AM,59.0,53.6,82,29.44,10.0,Calm,Calm,-,N/A,,Overcast,0,2014-03-12 12:55:00
9:15 AM,59.0,53.6,82,29.43,7.0,North,-9999.0,-,N/A,,Overcast,0,2014-03-12 13:15:00
9:35 AM,59.0,55.4,88,29.43,7.0,WNW,8.1,-,N/A,,Overcast,290,2014-03-12 13:35:00
9:55 AM,59.0,55.4,88,29.43,7.0,West,11.5,16.1,N/A,,Overcast,270,2014-03-12 13:55:00
10:15 AM,59.0,55.4,88,29.43,10.0,West,9.2,-,N/A,,Overcast,280,2014-03-12 14:15:00
10:35 AM,59.0,55.4,88,29.41,10.0,West,9.2,17.3,N/A,,Overcast,260,2014-03-12 14:35:00
10:55 AM,60.8,55.4,82,29.40,10.0,West,12.7,21.9,N/A,,Overcast,260,2014-03-12 14:55:00
11:15 AM,60.8,53.6,77,29.39,10.0,West,11.5,21.9,N/A,,Overcast,260,2014-03-12 15:15:00
11:35 AM,62.6,53.6,72,29.38,10.0,West,12.7,24.2,N/A,,Overcast,260,2014-03-12 15:35:00
11:55 AM,62.6,51.8,68,29.38,10.0,West,11.5,25.3,N/A,,Overcast,260,2014-03-12 15:55:00
12:15 PM,64.4,51.8,64,29.36,10.0,SW,11.5,27.6,N/A,,Overcast,220,2014-03-12 16:15:00
12:35 PM,55.4,51.8,88,29.41,1.2,West,20.7,43.7,N/A,,Overcast,280,2014-03-12 16:35:00
12:55 PM,53.6,50.0,88,29.43,10.0,West,25.3,35.7,N/A,,Overcast,260,2014-03-12 16:55:00
1:15 PM,51.8,44.6,76,29.47,10.0,West,17.3,36.8,N/A,,Overcast,270,2014-03-12 17:15:00
1:35 PM,51.8,42.8,71,29.48,10.0,WNW,6.9,24.2,N/A,,Overcast,290,2014-03-12 17:35:00
1:55 PM,46.4,42.8,87,29.51,10.0,WNW,17.3,27.6,N/A,,Overcast,290,2014-03-12 17:55:00
2:15 PM,44.6,39.2,81,29.53,10.0,West,23.0,33.4,N/A,,Overcast,260,2014-03-12 18:15:00
2:35 PM,42.8,37.4,81,29.55,7.0,West,18.4,33.4,N/A,,Overcast,260,2014-03-12 18:35:00
2:55 PM,41.0,37.4,87,29.56,5.0,West,21.9,33.4,N/A,,Overcast,270,2014-03-12 18:55:00
3:15 PM,42.8,37.4,81,29.58,7.0,West,17.3,32.2,N/A,,Overcast,270,2014-03-12 19:15:00
3:30 PM,42.8,35.6,76,29.60,4.0,WNW,28.8,36.8,N/A,,Overcast,300,2014-03-12 19:30:00
3:55 PM,39.2,32.0,75,29.63,10.0,WNW,12.7,27.6,N/A,,Overcast,290,2014-03-12 19:55:00
4:15 PM,37.4,33.8,87,29.67,2.0,West,15.0,28.8,N/A,,Overcast,280,2014-03-12 20:15:00
4:35 PM,37.4,32.0,81,29.68,7.0,WNW,12.7,29.9,N/A,,Overcast,290,2014-03-12 20:35:00
4:55 PM,37.4,32.0,81,29.69,10.0,West,13.8,18.4,N/A,,Overcast,280,2014-03-12 20:55:00
5:15 PM,37.4,32.0,81,29.71,5.0,WNW,11.5,24.2,N/A,,Overcast,300,2014-03-12 21:15:00
5:35 PM,35.6,32.0,87,29.72,10.0,WNW,15.0,29.9,N/A,,Overcast,300,2014-03-12 21:35:00
5:55 PM,35.6,32.0,87,29.74,10.0,WNW,10.4,24.2,N/A,,Overcast,290,2014-03-12 21:55:00
6:15 PM,35.6,32.0,87,29.75,10.0,West,10.4,18.4,N/A,,Overcast,280,2014-03-12 22:15:00
6:35 PM,35.6,32.0,87,29.75,7.0,West,6.9,17.3,N/A,,Overcast,260,2014-03-12 22:35:00
6:55 PM,35.6,32.0,87,29.76,10.0,West,8.1,-,N/A,,Overcast,270,2014-03-12 22:55:00
7:15 PM,33.8,32.0,93,29.78,5.0,WNW,11.5,20.7,N/A,,Overcast,290,2014-03-12 23:15:00
7:35 PM,33.8,32.0,93,29.79,5.0,West,12.7,29.9,N/A,,Overcast,280,2014-03-12 23:35:00
7:55 PM,33.8,32.0,93,29.81,0.8,WNW,13.8,21.9,N/A,,Overcast,300,2014-03-12 23:55:00
8:15 PM,33.8,30.2,87,29.82,2.0,WNW,18.4,24.2,N/A,,Overcast,290,2014-03-13 00:15:00
8:35 PM,33.8,28.4,81,29.83,7.0,West,17.3,29.9,N/A,,Overcast,280,2014-03-13 00:35:00
8:55 PM,32.0,28.4,87,29.85,7.0,WNW,18.4,27.6,N/A,,Overcast,300,2014-03-13 00:55:00
9:15 PM,32.0,28.4,87,29.87,2.0,WNW,8.1,21.9,N/A,,Overcast,300,2014-03-13 01:15:00
9:35 PM,32.0,28.4,87,29.87,2.0,NW,4.6,17.3,N/A,,Overcast,310,2014-03-13 01:35:00
9:55 PM,32.0,28.4,87,29.88,1.2,West,4.6,-,N/A,,Overcast,280,2014-03-13 01:55:00
10:15 PM,32.0,28.4,87,29.89,0.8,WNW,13.8,23.0,N/A,,Overcast,300,2014-03-13 02:15:00
10:35 PM,32.0,26.6,80,29.90,1.5,WNW,11.5,21.9,N/A,,Overcast,300,2014-03-13 02:35:00
10:55 PM,32.0,26.6,80,29.90,2.0,West,20.7,29.9,N/A,,Overcast,270,2014-03-13 02:55:00
11:15 PM,30.2,26.6,86,29.92,1.2,North,9.2,-,N/A,,Overcast,350,2014-03-13 03:15:00
11:35 PM,30.2,26.6,86,29.93,0.2,NW,12.7,23.0,N/A,,Overcast,320,2014-03-13 03:35:00
11:55 PM,30.2,23.0,75,29.93,4.0,WNW,8.1,17.3,N/A,,Overcast,290,2014-03-13 03:55:00